createdAt,value
2022-09-01T00:03:01.875Z,27.40
2022-09-01T00:08:05.648Z,27.40
2022-09-01T00:13:07.749Z,27.41
2022-09-01T00:18:09.751Z,27.44
2022-09-01T00:23:11.741Z,27.43
2022-09-01T00:28:13.690Z,27.40
2022-09-01T00:33:15.900Z,27.44
2022-09-01T00:38:18.384Z,27.35
2022-09-01T00:43:40.177Z,27.30
2022-09-01T00:48:42.350Z,27.39
2022-09-01T00:53:46.173Z,27.42
2022-09-01T00:58:48.446Z,27.36
2022-09-01T01:03:50.391Z,27.40
2022-09-01T01:09:01.083Z,27.37
2022-09-01T01:14:12.228Z,27.36
2022-09-01T01:19:41.952Z,27.36
2022-09-01T01:24:46.367Z,27.38
2022-09-01T01:29:49.027Z,27.36
2022-09-01T01:34:50.739Z,27.37
2022-09-01T01:39:53.620Z,27.41
2022-09-01T01:44:55.919Z,27.41
2022-09-01T01:49:57.978Z,27.41
2022-09-01T01:55:04.518Z,27.41
2022-09-01T02:00:08.073Z,27.38
2022-09-01T02:05:13.216Z,27.40
2022-09-01T02:10:15.409Z,27.38
2022-09-01T02:15:17.498Z,27.42
2022-09-01T02:20:19.454Z,27.42
2022-09-01T02:25:21.606Z,27.41
2022-09-01T02:30:26.821Z,27.38
2022-09-01T02:35:38.299Z,27.36
2022-09-01T02:40:44.847Z,27.42
2022-09-01T02:45:55.721Z,27.36
2022-09-01T02:51:04.927Z,27.41
2022-09-01T02:56:12.416Z,27.38
2022-09-01T03:01:25.142Z,27.31
2022-09-01T03:06:28.376Z,27.42
2022-09-01T03:11:32.779Z,27.42
2022-09-01T03:16:38.309Z,27.38
2022-09-01T03:21:43.311Z,27.36
2022-09-01T03:26:50.021Z,27.37
2022-09-01T03:31:52.361Z,27.33
2022-09-01T03:36:54.626Z,27.33
2022-09-01T03:41:58.332Z,27.29
2022-09-01T03:47:01.570Z,27.33
2022-09-01T03:52:04.176Z,27.40
2022-09-01T03:57:07.181Z,27.38
2022-09-01T04:02:09.803Z,27.30
2022-09-01T04:07:19.200Z,27.38
2022-09-01T04:12:21.257Z,27.39
2022-09-01T04:17:41.846Z,27.34
2022-09-01T04:22:44.099Z,27.39
2022-09-01T04:27:47.821Z,27.37
2022-09-01T04:32:49.914Z,27.27
2022-09-01T04:37:52.113Z,27.35
2022-09-01T04:42:54.156Z,27.30
2022-09-01T04:47:56.120Z,27.27
2022-09-01T04:53:02.358Z,27.28
2022-09-01T04:58:10.067Z,27.26
2022-09-01T05:03:12.216Z,27.25
2022-09-01T05:08:23.665Z,27.29
2022-09-01T05:13:27.440Z,27.32
2022-09-01T05:18:29.785Z,27.25
2022-09-01T05:23:32.306Z,27.31
2022-09-01T05:28:34.333Z,27.33
2022-09-01T05:33:37.772Z,27.35
2022-09-01T05:38:42.956Z,27.28
2022-09-01T05:43:48.450Z,27.29
2022-09-01T05:48:52.435Z,27.30
2022-09-01T05:53:59.128Z,27.34
2022-09-01T06:04:25.833Z,27.29
2022-09-01T06:09:27.954Z,27.22
2022-09-01T06:14:29.771Z,27.13
2022-09-01T06:19:37.181Z,26.95
2022-09-01T06:24:43.615Z,27.12
2022-09-01T06:29:53.974Z,27.20
2022-09-01T06:34:58.363Z,27.09
2022-09-01T06:40:00.192Z,27.30
2022-09-01T06:45:02.483Z,27.33
2022-09-01T06:50:08.790Z,27.25
2022-09-01T06:55:15.237Z,27.19
2022-09-01T07:00:21.258Z,27.24
2022-09-01T07:16:34.620Z,27.24
2022-09-01T07:21:40.809Z,27.29
2022-09-01T07:26:47.232Z,27.55
2022-09-01T07:32:41.167Z,27.55
2022-09-01T07:48:03.726Z,27.62
2022-09-01T07:53:05.995Z,27.69
2022-09-01T07:58:07.840Z,27.65
2022-09-01T08:03:09.778Z,27.68
2022-09-01T08:08:19.345Z,27.51
2022-09-01T08:13:22.326Z,27.58
2022-09-01T08:18:24.421Z,27.58
2022-09-01T08:23:27.524Z,27.57
2022-09-01T08:28:29.833Z,27.47
2022-09-01T08:33:35.394Z,27.48
2022-09-01T08:38:37.392Z,27.44
2022-09-01T08:43:58.840Z,27.41
2022-09-01T08:54:35.376Z,27.42
2022-09-01T08:59:39.002Z,27.40
2022-09-01T09:05:21.381Z,27.39
2022-09-01T09:10:48.139Z,27.38
2022-09-01T09:16:08.733Z,27.32
2022-09-01T09:21:27.351Z,27.35
2022-09-01T09:26:42.289Z,27.36
2022-09-01T09:31:50.386Z,27.38
2022-09-01T09:36:55.442Z,27.39
2022-09-01T09:42:09.824Z,27.35
2022-09-01T09:47:46.562Z,27.31
2022-09-01T09:52:49.514Z,27.38
2022-09-01T09:57:55.473Z,27.35
2022-09-01T10:03:19.716Z,27.34
2022-09-01T10:08:28.417Z,27.28
2022-09-01T10:13:33.152Z,27.27
2022-09-01T10:18:45.215Z,27.32
2022-09-01T10:23:47.047Z,27.35
2022-09-01T10:29:15.855Z,27.24
2022-09-01T10:34:19.833Z,27.28
2022-09-01T10:39:22.537Z,27.33
2022-09-01T10:44:39.058Z,27.27
2022-09-01T10:49:47.429Z,27.29
2022-09-01T10:55:01.834Z,27.32
2022-09-01T11:00:37.485Z,27.25
2022-09-01T11:06:11.029Z,27.28
2022-09-01T11:11:22.959Z,27.27
2022-09-01T11:16:46.728Z,27.30
2022-09-01T11:22:05.998Z,27.31
2022-09-01T11:27:32.724Z,27.34
2022-09-01T11:32:37.896Z,27.28
2022-09-01T11:37:40.641Z,27.29
2022-09-01T11:42:46.719Z,27.32
2022-09-01T11:48:06.549Z,27.34
2022-09-01T11:53:13.614Z,27.18
2022-09-01T11:58:32.079Z,27.23
2022-09-01T12:03:34.265Z,27.31
2022-09-01T12:08:40.735Z,27.05
2022-09-01T12:13:59.087Z,27.08
2022-09-01T12:19:01.549Z,27.23
2022-09-01T12:24:23.172Z,27.14
2022-09-01T12:29:28.928Z,27.22
2022-09-01T12:34:33.899Z,27.14
2022-09-01T12:39:44.140Z,27.15
2022-09-01T12:44:52.270Z,27.06
2022-09-01T12:49:55.692Z,27.26
2022-09-01T12:55:04.217Z,27.20
2022-09-01T13:00:31.496Z,27.07
2022-09-01T13:05:40.993Z,27.16
2022-09-01T13:10:46.596Z,27.11
2022-09-01T13:15:51.655Z,27.15
2022-09-01T13:20:54.475Z,27.13
2022-09-01T13:25:56.575Z,27.19
2022-09-01T13:36:48.087Z,27.27
2022-09-01T13:41:50.935Z,27.18
2022-09-01T13:47:00.906Z,27.23
2022-09-01T13:52:14.781Z,27.33
2022-09-01T13:57:16.803Z,27.23
2022-09-01T14:02:19.013Z,27.29
2022-09-01T14:07:22.316Z,27.33
2022-09-01T14:12:24.513Z,27.30
2022-09-01T14:17:26.568Z,27.06
2022-09-01T14:22:28.562Z,27.24
2022-09-01T14:27:31.118Z,27.24
2022-09-01T14:32:33.007Z,27.31
2022-09-01T14:37:37.748Z,27.21
2022-09-01T14:42:40.359Z,27.41
2022-09-01T14:47:42.359Z,27.26
2022-09-01T14:52:45.797Z,27.29
2022-09-01T14:57:47.942Z,27.23
2022-09-01T15:02:49.747Z,27.26
2022-09-01T15:07:52.488Z,27.42
2022-09-01T15:12:59.689Z,27.34
2022-09-01T15:18:02.359Z,27.35
2022-09-01T15:23:04.816Z,27.32
2022-09-01T15:28:08.844Z,27.40
2022-09-01T15:33:19.928Z,27.43
2022-09-01T15:38:23.471Z,27.28
2022-09-01T15:43:28.980Z,27.44
2022-09-01T15:48:30.869Z,27.49
2022-09-01T15:53:32.745Z,27.31
2022-09-01T15:58:59.411Z,27.41
2022-09-01T16:03:57.679Z,27.36
2022-09-01T16:08:59.637Z,27.27
2022-09-01T16:14:02.139Z,27.34
2022-09-01T16:19:48.747Z,27.32
2022-09-01T16:24:54.604Z,27.18
2022-09-01T16:30:02.062Z,27.26
2022-09-01T16:35:04.371Z,27.28
2022-09-01T16:40:37.956Z,27.17
2022-09-01T16:46:03.833Z,27.23
2022-09-01T16:51:39.363Z,27.26
2022-09-01T16:56:59.879Z,27.28
2022-09-01T17:02:32.220Z,27.28
2022-09-01T17:07:48.398Z,27.34
2022-09-01T17:12:56.266Z,27.35
2022-09-01T17:18:36.350Z,27.16
2022-09-01T17:23:50.790Z,27.32
2022-09-01T17:29:25.835Z,27.35
2022-09-01T17:34:43.779Z,27.36
2022-09-01T17:40:15.999Z,27.50
2022-09-01T17:45:37.270Z,27.58
2022-09-01T17:50:39.264Z,27.56
2022-09-01T17:55:55.113Z,27.63
2022-09-01T18:01:10.193Z,27.60
2022-09-01T18:06:36.778Z,27.66
2022-09-01T18:11:48.080Z,27.56
2022-09-01T18:17:10.924Z,27.55
2022-09-01T18:22:20.765Z,27.51
2022-09-01T18:27:26.079Z,27.46
2022-09-01T18:33:05.378Z,27.45
2022-09-01T18:38:16.398Z,27.55
2022-09-01T18:43:33.889Z,27.49
2022-09-01T18:49:12.406Z,27.52
2022-09-01T18:54:37.182Z,27.58
2022-09-01T18:59:44.945Z,27.57
2022-09-01T19:04:49.968Z,27.55
2022-09-01T19:10:19.487Z,27.58
2022-09-01T19:15:39.922Z,27.58
2022-09-01T19:20:51.211Z,27.55
2022-09-01T19:26:00.389Z,27.58
2022-09-01T19:31:27.049Z,27.56
2022-09-01T19:36:36.724Z,27.61
2022-09-01T19:42:13.127Z,27.40
2022-09-01T19:47:20.935Z,27.44
2022-09-01T19:52:35.607Z,27.52
2022-09-01T19:58:01.348Z,27.53
2022-09-01T20:03:16.158Z,27.55
2022-09-01T20:08:27.062Z,27.48
2022-09-01T20:14:06.203Z,27.45
2022-09-01T20:19:14.524Z,27.45
2022-09-01T20:24:34.760Z,27.37
2022-09-01T20:29:58.699Z,27.35
2022-09-01T20:35:08.535Z,27.34
2022-09-01T20:40:31.168Z,27.34
2022-09-01T20:45:33.312Z,27.33
2022-09-01T20:50:54.609Z,27.35
2022-09-01T20:56:32.797Z,27.35
2022-09-01T21:01:52.999Z,27.42
2022-09-01T21:07:31.399Z,27.38
2022-09-01T21:12:47.882Z,27.30
2022-09-01T21:18:03.243Z,27.30
2022-09-01T21:23:06.838Z,27.32
2022-09-01T21:28:08.704Z,27.36
2022-09-01T21:33:10.641Z,27.28
2022-09-01T21:38:12.614Z,27.35
2022-09-01T21:43:19.253Z,27.35
2022-09-01T21:48:21.318Z,27.28
2022-09-01T21:53:23.284Z,27.33
2022-09-01T21:58:25.571Z,27.35
2022-09-01T22:03:27.367Z,27.25
2022-09-01T22:08:29.339Z,27.33
2022-09-01T22:13:31.276Z,27.38
2022-09-01T22:18:33.094Z,27.36
2022-09-01T22:23:35.589Z,27.31
2022-09-01T22:28:37.433Z,27.19
2022-09-01T22:33:39.245Z,27.29
2022-09-01T22:38:41.046Z,27.30
2022-09-01T22:43:42.875Z,27.30
2022-09-01T22:48:44.776Z,27.32
2022-09-01T22:53:46.753Z,27.29
2022-09-01T22:58:49.523Z,27.29
2022-09-01T23:03:52.057Z,27.31
2022-09-01T23:08:54.101Z,27.31
2022-09-01T23:13:56.274Z,27.31
2022-09-01T23:18:58.308Z,27.31
2022-09-01T23:24:00.697Z,27.33
2022-09-01T23:29:04.062Z,27.35
2022-09-01T23:34:07.476Z,27.23
2022-09-01T23:39:09.244Z,27.27
2022-09-01T23:44:12.057Z,27.23
2022-09-01T23:49:16.635Z,27.28
2022-09-01T23:54:18.637Z,27.20
2022-09-01T23:59:27.706Z,27.23
